sensor_id;sensor_type;location;lat;lon;timestamp;temperature;humidity
77523;SHT31;66637;-29.628;-49.938;2023-02-08T00:02:19;26.56;67.15
77523;SHT31;66637;-29.628;-49.938;2023-02-08T00:04:50;26.61;67.34
77523;SHT31;66637;-29.628;-49.938;2023-02-08T00:07:20;26.57;65.24
77523;SHT31;66637;-29.628;-49.938;2023-02-08T00:09:54;26.58;65.32
77523;SHT31;66637;-29.628;-49.938;2023-02-08T00:12:24;26.56;65.51
77523;SHT31;66637;-29.628;-49.938;2023-02-08T00:14:54;26.54;66.14
77523;SHT31;66637;-29.628;-49.938;2023-02-08T00:17:24;26.56;66.44
77523;SHT31;66637;-29.628;-49.938;2023-02-08T00:20:00;26.50;66.57
77523;SHT31;66637;-29.628;-49.938;2023-02-08T00:22:30;26.48;67.37
77523;SHT31;66637;-29.628;-49.938;2023-02-08T00:25:00;26.46;68.11
77523;SHT31;66637;-29.628;-49.938;2023-02-08T00:27:32;26.43;67.22
77523;SHT31;66637;-29.628;-49.938;2023-02-08T00:30:02;26.44;67.84
77523;SHT31;66637;-29.628;-49.938;2023-02-08T00:32:36;26.44;67.72
77523;SHT31;66637;-29.628;-49.938;2023-02-08T00:35:06;26.44;68.31
77523;SHT31;66637;-29.628;-49.938;2023-02-08T00:37:40;26.46;68.84
77523;SHT31;66637;-29.628;-49.938;2023-02-08T00:40:13;26.48;68.54
77523;SHT31;66637;-29.628;-49.938;2023-02-08T00:42:44;26.44;69.17
77523;SHT31;66637;-29.628;-49.938;2023-02-08T00:45:17;26.41;68.45
77523;SHT31;66637;-29.628;-49.938;2023-02-08T00:47:47;26.39;68.90
77523;SHT31;66637;-29.628;-49.938;2023-02-08T00:50:18;26.37;68.89
77523;SHT31;66637;-29.628;-49.938;2023-02-08T00:52:48;26.37;69.27
77523;SHT31;66637;-29.628;-49.938;2023-02-08T00:55:21;26.41;69.32
77523;SHT31;66637;-29.628;-49.938;2023-02-08T00:57:53;26.34;68.12
77523;SHT31;66637;-29.628;-49.938;2023-02-08T01:00:27;26.32;68.23
77523;SHT31;66637;-29.628;-49.938;2023-02-08T01:02:57;26.37;69.43
77523;SHT31;66637;-29.628;-49.938;2023-02-08T01:05:46;26.33;69.28
77523;SHT31;66637;-29.628;-49.938;2023-02-08T01:08:17;26.27;68.73
77523;SHT31;66637;-29.628;-49.938;2023-02-08T01:10:49;26.24;69.73
77523;SHT31;66637;-29.628;-49.938;2023-02-08T01:13:32;26.23;69.83
77523;SHT31;66637;-29.628;-49.938;2023-02-08T01:16:06;26.23;69.77
77523;SHT31;66637;-29.628;-49.938;2023-02-08T01:18:42;26.23;69.40
77523;SHT31;66637;-29.628;-49.938;2023-02-08T01:21:16;26.19;70.15
77523;SHT31;66637;-29.628;-49.938;2023-02-08T01:23:48;26.17;70.77
77523;SHT31;66637;-29.628;-49.938;2023-02-08T01:26:20;26.19;70.29
77523;SHT31;66637;-29.628;-49.938;2023-02-08T01:28:51;26.14;69.38
77523;SHT31;66637;-29.628;-49.938;2023-02-08T01:31:25;26.14;69.86
77523;SHT31;66637;-29.628;-49.938;2023-02-08T01:34:04;26.17;70.26
77523;SHT31;66637;-29.628;-49.938;2023-02-08T01:36:35;26.13;69.93
77523;SHT31;66637;-29.628;-49.938;2023-02-08T01:39:14;26.14;69.94
77523;SHT31;66637;-29.628;-49.938;2023-02-08T01:41:45;26.12;69.59
77523;SHT31;66637;-29.628;-49.938;2023-02-08T01:46:47;26.14;69.14
77523;SHT31;66637;-29.628;-49.938;2023-02-08T01:52:04;26.13;68.98
77523;SHT31;66637;-29.628;-49.938;2023-02-08T01:54:43;26.20;69.01
77523;SHT31;66637;-29.628;-49.938;2023-02-08T01:57:20;26.22;68.40
77523;SHT31;66637;-29.628;-49.938;2023-02-08T02:00:01;26.20;68.48
77523;SHT31;66637;-29.628;-49.938;2023-02-08T02:02:45;26.23;68.71
77523;SHT31;66637;-29.628;-49.938;2023-02-08T02:05:17;26.24;68.98
77523;SHT31;66637;-29.628;-49.938;2023-02-08T02:07:59;26.23;68.51
77523;SHT31;66637;-29.628;-49.938;2023-02-08T02:10:54;26.22;68.67
77523;SHT31;66637;-29.628;-49.938;2023-02-08T02:13:26;26.26;69.07
77523;SHT31;66637;-29.628;-49.938;2023-02-08T02:15:58;26.20;69.20
77523;SHT31;66637;-29.628;-49.938;2023-02-08T02:18:31;26.20;69.01
77523;SHT31;66637;-29.628;-49.938;2023-02-08T02:27:30;26.29;69.70
77523;SHT31;66637;-29.628;-49.938;2023-02-08T03:11:09;25.81;71.36
77523;SHT31;66637;-29.628;-49.938;2023-02-08T03:16:41;25.72;71.73
77523;SHT31;66637;-29.628;-49.938;2023-02-08T03:22:33;25.59;72.14
77523;SHT31;66637;-29.628;-49.938;2023-02-08T03:31:13;25.52;72.47
77523;SHT31;66637;-29.628;-49.938;2023-02-08T03:34:15;25.48;72.41
77523;SHT31;66637;-29.628;-49.938;2023-02-08T03:36:52;25.45;72.78
77523;SHT31;66637;-29.628;-49.938;2023-02-08T03:39:27;25.46;72.86
77523;SHT31;66637;-29.628;-49.938;2023-02-08T03:42:02;25.42;73.01
77523;SHT31;66637;-29.628;-49.938;2023-02-08T03:45:08;25.42;72.73
77523;SHT31;66637;-29.628;-49.938;2023-02-08T03:47:40;25.48;71.78
77523;SHT31;66637;-29.628;-49.938;2023-02-08T03:50:13;25.35;73.35
77523;SHT31;66637;-29.628;-49.938;2023-02-08T03:52:48;25.27;73.64
77523;SHT31;66637;-29.628;-49.938;2023-02-08T03:55:26;25.28;73.63
77523;SHT31;66637;-29.628;-49.938;2023-02-08T03:58:04;25.30;73.57
77523;SHT31;66637;-29.628;-49.938;2023-02-08T04:00:42;25.24;73.69
77523;SHT31;66637;-29.628;-49.938;2023-02-08T04:03:29;25.18;73.92
77523;SHT31;66637;-29.628;-49.938;2023-02-08T04:06:00;25.15;73.98
77523;SHT31;66637;-29.628;-49.938;2023-02-08T04:08:32;25.07;74.54
77523;SHT31;66637;-29.628;-49.938;2023-02-08T04:11:02;25.04;74.70
77523;SHT31;66637;-29.628;-49.938;2023-02-08T04:13:32;25.01;74.56
77523;SHT31;66637;-29.628;-49.938;2023-02-08T04:16:01;25.01;74.86
77523;SHT31;66637;-29.628;-49.938;2023-02-08T04:18:33;24.97;75.13
77523;SHT31;66637;-29.628;-49.938;2023-02-08T04:21:04;25.03;74.73
77523;SHT31;66637;-29.628;-49.938;2023-02-08T04:23:34;25.03;75.06
77523;SHT31;66637;-29.628;-49.938;2023-02-08T04:26:04;25.08;75.06
77523;SHT31;66637;-29.628;-49.938;2023-02-08T04:28:40;25.08;74.90
77523;SHT31;66637;-29.628;-49.938;2023-02-08T04:31:10;25.07;75.00
77523;SHT31;66637;-29.628;-49.938;2023-02-08T04:33:40;25.10;75.07
77523;SHT31;66637;-29.628;-49.938;2023-02-08T04:36:12;25.07;75.05
77523;SHT31;66637;-29.628;-49.938;2023-02-08T04:38:42;25.10;74.91
77523;SHT31;66637;-29.628;-49.938;2023-02-08T04:41:12;25.08;75.07
77523;SHT31;66637;-29.628;-49.938;2023-02-08T04:43:42;25.07;74.92
77523;SHT31;66637;-29.628;-49.938;2023-02-08T04:46:15;25.10;74.91
77523;SHT31;66637;-29.628;-49.938;2023-02-08T04:48:46;25.04;75.03
77523;SHT31;66637;-29.628;-49.938;2023-02-08T04:51:16;25.07;74.87
77523;SHT31;66637;-29.628;-49.938;2023-02-08T04:53:46;25.10;74.79
77523;SHT31;66637;-29.628;-49.938;2023-02-08T04:56:17;25.04;74.68
77523;SHT31;66637;-29.628;-49.938;2023-02-08T04:58:49;25.07;74.88
77523;SHT31;66637;-29.628;-49.938;2023-02-08T05:01:19;25.04;74.81
77523;SHT31;66637;-29.628;-49.938;2023-02-08T05:03:50;25.00;74.86
77523;SHT31;66637;-29.628;-49.938;2023-02-08T05:06:20;25.03;74.64
77523;SHT31;66637;-29.628;-49.938;2023-02-08T05:08:52;25.00;74.97
77523;SHT31;66637;-29.628;-49.938;2023-02-08T05:11:23;24.98;75.04
77523;SHT31;66637;-29.628;-49.938;2023-02-08T05:13:54;24.97;75.05
77523;SHT31;66637;-29.628;-49.938;2023-02-08T05:16:34;24.97;75.23
77523;SHT31;66637;-29.628;-49.938;2023-02-08T05:19:05;24.90;75.25
77523;SHT31;66637;-29.628;-49.938;2023-02-08T05:21:35;24.94;74.92
77523;SHT31;66637;-29.628;-49.938;2023-02-08T05:24:07;24.91;75.26
77523;SHT31;66637;-29.628;-49.938;2023-02-08T05:26:41;24.87;75.45
77523;SHT31;66637;-29.628;-49.938;2023-02-08T05:29:13;24.84;75.54
77523;SHT31;66637;-29.628;-49.938;2023-02-08T05:31:44;24.86;75.44
77523;SHT31;66637;-29.628;-49.938;2023-02-08T05:34:16;24.87;75.42
77523;SHT31;66637;-29.628;-49.938;2023-02-08T05:36:46;24.86;75.30
77523;SHT31;66637;-29.628;-49.938;2023-02-08T05:39:16;24.83;75.39
77523;SHT31;66637;-29.628;-49.938;2023-02-08T05:41:46;24.83;75.48
77523;SHT31;66637;-29.628;-49.938;2023-02-08T05:44:37;24.80;75.38
77523;SHT31;66637;-29.628;-49.938;2023-02-08T05:47:07;24.79;75.57
77523;SHT31;66637;-29.628;-49.938;2023-02-08T05:49:38;24.80;75.60
77523;SHT31;66637;-29.628;-49.938;2023-02-08T05:52:09;24.77;75.66
77523;SHT31;66637;-29.628;-49.938;2023-02-08T05:54:40;24.76;75.71
77523;SHT31;66637;-29.628;-49.938;2023-02-08T05:57:10;24.81;75.35
77523;SHT31;66637;-29.628;-49.938;2023-02-08T05:59:40;24.81;75.54
77523;SHT31;66637;-29.628;-49.938;2023-02-08T06:02:10;24.84;75.25
77523;SHT31;66637;-29.628;-49.938;2023-02-08T06:04:46;24.81;75.55
77523;SHT31;66637;-29.628;-49.938;2023-02-08T06:07:17;24.77;75.34
77523;SHT31;66637;-29.628;-49.938;2023-02-08T06:09:47;24.77;75.57
77523;SHT31;66637;-29.628;-49.938;2023-02-08T06:12:18;24.74;75.74
77523;SHT31;66637;-29.628;-49.938;2023-02-08T06:14:48;24.69;75.79
77523;SHT31;66637;-29.628;-49.938;2023-02-08T06:17:18;24.61;76.24
77523;SHT31;66637;-29.628;-49.938;2023-02-08T06:19:50;24.59;76.39
77523;SHT31;66637;-29.628;-49.938;2023-02-08T06:22:23;24.55;76.60
77523;SHT31;66637;-29.628;-49.938;2023-02-08T06:24:54;24.47;76.79
77523;SHT31;66637;-29.628;-49.938;2023-02-08T06:27:24;24.40;77.08
77523;SHT31;66637;-29.628;-49.938;2023-02-08T06:29:55;24.37;77.07
77523;SHT31;66637;-29.628;-49.938;2023-02-08T06:32:26;24.37;77.30
77523;SHT31;66637;-29.628;-49.938;2023-02-08T06:34:57;24.35;77.34
77523;SHT31;66637;-29.628;-49.938;2023-02-08T06:37:38;24.37;77.24
77523;SHT31;66637;-29.628;-49.938;2023-02-08T06:40:08;24.33;77.43
77523;SHT31;66637;-29.628;-49.938;2023-02-08T06:42:39;24.32;77.36
77523;SHT31;66637;-29.628;-49.938;2023-02-08T06:45:10;24.32;77.20
77523;SHT31;66637;-29.628;-49.938;2023-02-08T06:47:43;24.32;77.14
77523;SHT31;66637;-29.628;-49.938;2023-02-08T06:50:13;24.30;77.29
77523;SHT31;66637;-29.628;-49.938;2023-02-08T06:52:44;24.28;77.34
77523;SHT31;66637;-29.628;-49.938;2023-02-08T06:55:15;24.28;77.18
77523;SHT31;66637;-29.628;-49.938;2023-02-08T06:57:47;24.29;77.27
77523;SHT31;66637;-29.628;-49.938;2023-02-08T07:00:35;24.28;77.38
77523;SHT31;66637;-29.628;-49.938;2023-02-08T07:03:08;24.26;77.30
77523;SHT31;66637;-29.628;-49.938;2023-02-08T07:05:42;24.26;77.25
77523;SHT31;66637;-29.628;-49.938;2023-02-08T07:08:32;24.28;77.06
77523;SHT31;66637;-29.628;-49.938;2023-02-08T07:11:07;24.23;77.34
77523;SHT31;66637;-29.628;-49.938;2023-02-08T07:13:38;24.30;76.43
77523;SHT31;66637;-29.628;-49.938;2023-02-08T07:16:09;24.20;77.08
77523;SHT31;66637;-29.628;-49.938;2023-02-08T07:18:39;24.16;77.25
77523;SHT31;66637;-29.628;-49.938;2023-02-08T07:21:09;24.12;77.33
77523;SHT31;66637;-29.628;-49.938;2023-02-08T07:23:43;24.16;77.06
77523;SHT31;66637;-29.628;-49.938;2023-02-08T07:26:31;24.16;77.01
77523;SHT31;66637;-29.628;-49.938;2023-02-08T07:29:02;24.15;77.00
77523;SHT31;66637;-29.628;-49.938;2023-02-08T07:31:32;24.16;76.88
77523;SHT31;66637;-29.628;-49.938;2023-02-08T07:34:03;24.12;76.92
77523;SHT31;66637;-29.628;-49.938;2023-02-08T07:36:33;24.12;76.88
77523;SHT31;66637;-29.628;-49.938;2023-02-08T07:39:05;24.12;76.85
77523;SHT31;66637;-29.628;-49.938;2023-02-08T07:41:36;24.10;76.86
77523;SHT31;66637;-29.628;-49.938;2023-02-08T07:44:10;24.10;76.67
77523;SHT31;66637;-29.628;-49.938;2023-02-08T07:46:41;24.15;76.72
77523;SHT31;66637;-29.628;-49.938;2023-02-08T07:49:53;24.16;76.39
77523;SHT31;66637;-29.628;-49.938;2023-02-08T07:52:24;24.16;76.68
77523;SHT31;66637;-29.628;-49.938;2023-02-08T07:54:56;24.16;76.70
77523;SHT31;66637;-29.628;-49.938;2023-02-08T07:57:26;24.12;76.89
77523;SHT31;66637;-29.628;-49.938;2023-02-08T07:59:57;24.08;76.83
77523;SHT31;66637;-29.628;-49.938;2023-02-08T08:02:30;24.10;76.56
77523;SHT31;66637;-29.628;-49.938;2023-02-08T08:05:05;24.05;77.14
77523;SHT31;66637;-29.628;-49.938;2023-02-08T08:07:56;24.06;77.16
77523;SHT31;66637;-29.628;-49.938;2023-02-08T08:10:26;24.04;77.25
77523;SHT31;66637;-29.628;-49.938;2023-02-08T08:13:06;24.01;77.18
77523;SHT31;66637;-29.628;-49.938;2023-02-08T08:15:42;24.01;77.15
77523;SHT31;66637;-29.628;-49.938;2023-02-08T08:18:12;24.02;77.19
77523;SHT31;66637;-29.628;-49.938;2023-02-08T08:20:43;23.98;77.06
77523;SHT31;66637;-29.628;-49.938;2023-02-08T08:23:14;24.01;77.13
77523;SHT31;66637;-29.628;-49.938;2023-02-08T08:25:44;24.01;77.30
77523;SHT31;66637;-29.628;-49.938;2023-02-08T08:28:16;23.98;77.38
77523;SHT31;66637;-29.628;-49.938;2023-02-08T08:30:46;23.98;77.26
77523;SHT31;66637;-29.628;-49.938;2023-02-08T08:33:16;23.98;77.16
77523;SHT31;66637;-29.628;-49.938;2023-02-08T08:35:55;23.94;77.23
77523;SHT31;66637;-29.628;-49.938;2023-02-08T08:38:25;23.92;77.16
77523;SHT31;66637;-29.628;-49.938;2023-02-08T08:40:55;23.94;77.18
77523;SHT31;66637;-29.628;-49.938;2023-02-08T08:43:26;23.98;77.14
77523;SHT31;66637;-29.628;-49.938;2023-02-08T08:45:56;23.94;77.03
77523;SHT31;66637;-29.628;-49.938;2023-02-08T08:48:27;23.89;77.35
77523;SHT31;66637;-29.628;-49.938;2023-02-08T08:50:58;23.89;77.37
77523;SHT31;66637;-29.628;-49.938;2023-02-08T08:53:35;23.84;77.36
77523;SHT31;66637;-29.628;-49.938;2023-02-08T08:56:05;23.82;77.22
77523;SHT31;66637;-29.628;-49.938;2023-02-08T08:58:36;23.85;77.37
77523;SHT31;66637;-29.628;-49.938;2023-02-08T09:01:06;23.84;77.26
77523;SHT31;66637;-29.628;-49.938;2023-02-08T09:03:45;23.90;77.14
77523;SHT31;66637;-29.628;-49.938;2023-02-08T09:06:16;23.94;77.19
77523;SHT31;66637;-29.628;-49.938;2023-02-08T09:08:47;24.04;76.86
77523;SHT31;66637;-29.628;-49.938;2023-02-08T09:11:19;24.08;76.62
77523;SHT31;66637;-29.628;-49.938;2023-02-08T09:13:49;24.18;76.33
77523;SHT31;66637;-29.628;-49.938;2023-02-08T09:16:22;24.28;76.63
77523;SHT31;66637;-29.628;-49.938;2023-02-08T09:18:54;24.35;76.43
77523;SHT31;66637;-29.628;-49.938;2023-02-08T09:21:47;24.46;76.51
77523;SHT31;66637;-29.628;-49.938;2023-02-08T09:24:29;24.57;76.17
77523;SHT31;66637;-29.628;-49.938;2023-02-08T09:26:59;24.63;76.03
77523;SHT31;66637;-29.628;-49.938;2023-02-08T09:29:30;24.73;75.49
77523;SHT31;66637;-29.628;-49.938;2023-02-08T09:32:02;24.81;75.08
77523;SHT31;66637;-29.628;-49.938;2023-02-08T09:34:32;24.86;74.94
77523;SHT31;66637;-29.628;-49.938;2023-02-08T09:37:03;24.86;74.75
77523;SHT31;66637;-29.628;-49.938;2023-02-08T09:39:35;24.94;74.47
77523;SHT31;66637;-29.628;-49.938;2023-02-08T09:42:10;24.97;74.05
77523;SHT31;66637;-29.628;-49.938;2023-02-08T09:53:49;25.28;73.83
77523;SHT31;66637;-29.628;-49.938;2023-02-08T09:56:27;25.38;73.49
77523;SHT31;66637;-29.628;-49.938;2023-02-08T09:59:01;25.41;73.41
77523;SHT31;66637;-29.628;-49.938;2023-02-08T10:01:33;25.45;73.30
77523;SHT31;66637;-29.628;-49.938;2023-02-08T10:04:24;25.59;73.19
77523;SHT31;66637;-29.628;-49.938;2023-02-08T10:06:58;25.52;73.04
77523;SHT31;66637;-29.628;-49.938;2023-02-08T10:09:28;25.55;73.19
77523;SHT31;66637;-29.628;-49.938;2023-02-08T10:14:57;25.78;72.53
77523;SHT31;66637;-29.628;-49.938;2023-02-08T10:20:55;25.96;72.10
77523;SHT31;66637;-29.628;-49.938;2023-02-08T10:29:24;27.63;66.95
77523;SHT31;66637;-29.628;-49.938;2023-02-08T10:35:14;26.65;71.16
77523;SHT31;66637;-29.628;-49.938;2023-02-08T10:37:45;26.60;70.98
77523;SHT31;66637;-29.628;-49.938;2023-02-08T10:40:37;26.71;71.55
77523;SHT31;66637;-29.628;-49.938;2023-02-08T10:51:53;26.92;69.71
77523;SHT31;66637;-29.628;-49.938;2023-02-08T10:54:23;27.05;69.61
77523;SHT31;66637;-29.628;-49.938;2023-02-08T10:57:21;27.60;68.44
77523;SHT31;66637;-29.628;-49.938;2023-02-08T11:00:01;28.41;65.65
77523;SHT31;66637;-29.628;-49.938;2023-02-08T11:02:38;28.87;64.63
77523;SHT31;66637;-29.628;-49.938;2023-02-08T11:05:13;29.11;62.82
77523;SHT31;66637;-29.628;-49.938;2023-02-08T11:07:43;29.30;62.55
77523;SHT31;66637;-29.628;-49.938;2023-02-08T11:10:33;29.56;61.41
77523;SHT31;66637;-29.628;-49.938;2023-02-08T11:13:14;29.96;61.24
77523;SHT31;66637;-29.628;-49.938;2023-02-08T11:16:00;30.31;60.18
77523;SHT31;66637;-29.628;-49.938;2023-02-08T11:19:00;30.41;60.38
77523;SHT31;66637;-29.628;-49.938;2023-02-08T11:21:47;30.71;59.58
77523;SHT31;66637;-29.628;-49.938;2023-02-08T11:24:39;30.86;58.20
77523;SHT31;66637;-29.628;-49.938;2023-02-08T11:30:19;31.13;55.75
77523;SHT31;66637;-29.628;-49.938;2023-02-08T11:33:17;31.34;54.71
77523;SHT31;66637;-29.628;-49.938;2023-02-08T11:35:58;30.90;54.73
77523;SHT31;66637;-29.628;-49.938;2023-02-08T11:38:33;31.34;54.22
77523;SHT31;66637;-29.628;-49.938;2023-02-08T11:41:14;31.87;53.73
77523;SHT31;66637;-29.628;-49.938;2023-02-08T11:44:13;31.57;54.45
77523;SHT31;66637;-29.628;-49.938;2023-02-08T11:46:56;31.61;53.76
77523;SHT31;66637;-29.628;-49.938;2023-02-08T11:49:42;31.47;54.18
77523;SHT31;66637;-29.628;-49.938;2023-02-08T11:52:28;31.50;55.01
77523;SHT31;66637;-29.628;-49.938;2023-02-08T11:55:22;31.70;54.96
77523;SHT31;66637;-29.628;-49.938;2023-02-08T11:58:04;31.73;53.17
77523;SHT31;66637;-29.628;-49.938;2023-02-08T12:00:37;31.83;53.40
77523;SHT31;66637;-29.628;-49.938;2023-02-08T12:03:30;31.91;53.30
77523;SHT31;66637;-29.628;-49.938;2023-02-08T12:15:26;32.00;53.37
77523;SHT31;66637;-29.628;-49.938;2023-02-08T12:18:11;32.21;52.91
77523;SHT31;66637;-29.628;-49.938;2023-02-08T12:20:43;32.49;52.07
77523;SHT31;66637;-29.628;-49.938;2023-02-08T12:23:24;32.23;52.00
77523;SHT31;66637;-29.628;-49.938;2023-02-08T12:26:05;32.20;53.22
77523;SHT31;66637;-29.628;-49.938;2023-02-08T12:34:17;32.54;52.00
77523;SHT31;66637;-29.628;-49.938;2023-02-08T12:46:20;32.61;51.24
77523;SHT31;66637;-29.628;-49.938;2023-02-08T12:51:53;32.66;52.14
77523;SHT31;66637;-29.628;-49.938;2023-02-08T12:57:13;32.41;51.67
77523;SHT31;66637;-29.628;-49.938;2023-02-08T13:00:04;32.31;54.07
77523;SHT31;66637;-29.628;-49.938;2023-02-08T13:06:05;32.38;51.68
77523;SHT31;66637;-29.628;-49.938;2023-02-08T13:08:56;32.44;52.65
77523;SHT31;66637;-29.628;-49.938;2023-02-08T13:14:59;32.59;52.84
77523;SHT31;66637;-29.628;-49.938;2023-02-08T13:20:48;32.90;52.06
77523;SHT31;66637;-29.628;-49.938;2023-02-08T13:23:25;32.92;52.73
77523;SHT31;66637;-29.628;-49.938;2023-02-08T13:26:26;33.06;51.86
77523;SHT31;66637;-29.628;-49.938;2023-02-08T13:29:02;32.28;53.59
77523;SHT31;66637;-29.628;-49.938;2023-02-08T13:31:40;32.36;53.62
77523;SHT31;66637;-29.628;-49.938;2023-02-08T13:36:51;32.69;53.33
77523;SHT31;66637;-29.628;-49.938;2023-02-08T13:39:38;33.02;52.45
77523;SHT31;66637;-29.628;-49.938;2023-02-08T13:45:07;32.36;53.25
77523;SHT31;66637;-29.628;-49.938;2023-02-08T13:47:44;32.34;53.34
77523;SHT31;66637;-29.628;-49.938;2023-02-08T13:50:49;32.46;53.23
77523;SHT31;66637;-29.628;-49.938;2023-02-08T13:56:38;32.44;52.76
77523;SHT31;66637;-29.628;-49.938;2023-02-08T13:59:36;32.69;53.40
77523;SHT31;66637;-29.628;-49.938;2023-02-08T14:02:22;32.61;53.25
77523;SHT31;66637;-29.628;-49.938;2023-02-08T14:08:05;32.83;52.66
77523;SHT31;66637;-29.628;-49.938;2023-02-08T14:10:41;32.89;52.30
77523;SHT31;66637;-29.628;-49.938;2023-02-08T14:19:00;32.85;52.23
77523;SHT31;66637;-29.628;-49.938;2023-02-08T14:22:02;33.00;53.18
77523;SHT31;66637;-29.628;-49.938;2023-02-08T14:27:40;32.75;52.97
77523;SHT31;66637;-29.628;-49.938;2023-02-08T14:35:36;32.71;54.43
77523;SHT31;66637;-29.628;-49.938;2023-02-08T14:40:55;32.71;54.22
77523;SHT31;66637;-29.628;-49.938;2023-02-08T14:43:37;33.27;53.12
77523;SHT31;66637;-29.628;-49.938;2023-02-08T14:49:16;33.39;52.90
77523;SHT31;66637;-29.628;-49.938;2023-02-08T14:52:03;33.17;52.96
77523;SHT31;66637;-29.628;-49.938;2023-02-08T14:54:58;33.10;53.46
77523;SHT31;66637;-29.628;-49.938;2023-02-08T14:57:34;33.05;53.49
77523;SHT31;66637;-29.628;-49.938;2023-02-08T15:00:14;33.37;53.00
77523;SHT31;66637;-29.628;-49.938;2023-02-08T15:02:48;33.57;51.75
77523;SHT31;66637;-29.628;-49.938;2023-02-08T15:05:24;33.25;53.08
77523;SHT31;66637;-29.628;-49.938;2023-02-08T15:07:59;33.09;53.05
77523;SHT31;66637;-29.628;-49.938;2023-02-08T15:10:30;33.54;52.50
77523;SHT31;66637;-29.628;-49.938;2023-02-08T15:13:05;33.16;53.11
77523;SHT31;66637;-29.628;-49.938;2023-02-08T15:15:42;33.29;52.43
77523;SHT31;66637;-29.628;-49.938;2023-02-08T15:18:18;33.19;53.13
77523;SHT31;66637;-29.628;-49.938;2023-02-08T15:21:05;33.36;53.86
77523;SHT31;66637;-29.628;-49.938;2023-02-08T15:23:36;33.61;52.07
77523;SHT31;66637;-29.628;-49.938;2023-02-08T15:26:20;33.40;53.11
77523;SHT31;66637;-29.628;-49.938;2023-02-08T15:28:51;33.25;53.17
77523;SHT31;66637;-29.628;-49.938;2023-02-08T15:31:42;33.16;53.30
77523;SHT31;66637;-29.628;-49.938;2023-02-08T15:34:16;33.37;52.33
77523;SHT31;66637;-29.628;-49.938;2023-02-08T15:36:54;33.47;52.78
77523;SHT31;66637;-29.628;-49.938;2023-02-08T15:39:37;33.53;53.40
77523;SHT31;66637;-29.628;-49.938;2023-02-08T15:42:20;32.89;54.70
77523;SHT31;66637;-29.628;-49.938;2023-02-08T15:45:24;33.12;54.01
77523;SHT31;66637;-29.628;-49.938;2023-02-08T15:47:57;32.59;55.77
77523;SHT31;66637;-29.628;-49.938;2023-02-08T15:50:30;32.51;54.97
77523;SHT31;66637;-29.628;-49.938;2023-02-08T15:53:05;32.64;54.17
77523;SHT31;66637;-29.628;-49.938;2023-02-08T15:55:45;32.69;55.43
77523;SHT31;66637;-29.628;-49.938;2023-02-08T15:58:33;32.27;55.99
77523;SHT31;66637;-29.628;-49.938;2023-02-08T16:01:06;31.76;57.60
77523;SHT31;66637;-29.628;-49.938;2023-02-08T16:03:37;32.01;57.44
77523;SHT31;66637;-29.628;-49.938;2023-02-08T16:06:08;32.00;56.88
77523;SHT31;66637;-29.628;-49.938;2023-02-08T16:08:59;32.00;57.53
77523;SHT31;66637;-29.628;-49.938;2023-02-08T16:11:33;32.11;58.25
77523;SHT31;66637;-29.628;-49.938;2023-02-08T16:14:05;31.80;58.37
77523;SHT31;66637;-29.628;-49.938;2023-02-08T16:16:42;32.00;57.60
77523;SHT31;66637;-29.628;-49.938;2023-02-08T16:19:31;32.13;56.79
77523;SHT31;66637;-29.628;-49.938;2023-02-08T16:22:32;32.17;56.78
77523;SHT31;66637;-29.628;-49.938;2023-02-08T16:28:00;32.23;56.23
77523;SHT31;66637;-29.628;-49.938;2023-02-08T16:30:32;32.42;56.52
77523;SHT31;66637;-29.628;-49.938;2023-02-08T16:33:07;32.44;56.31
77523;SHT31;66637;-29.628;-49.938;2023-02-08T16:35:38;32.38;56.58
77523;SHT31;66637;-29.628;-49.938;2023-02-08T16:38:22;32.38;57.16
77523;SHT31;66637;-29.628;-49.938;2023-02-08T16:40:54;32.41;55.77
77523;SHT31;66637;-29.628;-49.938;2023-02-08T16:43:30;32.44;56.42
77523;SHT31;66637;-29.628;-49.938;2023-02-08T16:46:20;32.71;55.86
77523;SHT31;66637;-29.628;-49.938;2023-02-08T16:48:54;32.21;56.90
77523;SHT31;66637;-29.628;-49.938;2023-02-08T16:51:27;32.25;56.62
77523;SHT31;66637;-29.628;-49.938;2023-02-08T16:54:06;32.21;56.97
77523;SHT31;66637;-29.628;-49.938;2023-02-08T16:56:47;32.28;56.52
77523;SHT31;66637;-29.628;-49.938;2023-02-08T16:59:22;32.39;57.03
77523;SHT31;66637;-29.628;-49.938;2023-02-08T17:01:53;32.21;57.23
77523;SHT31;66637;-29.628;-49.938;2023-02-08T17:04:28;32.44;55.94
77523;SHT31;66637;-29.628;-49.938;2023-02-08T17:07:00;32.49;56.05
77523;SHT31;66637;-29.628;-49.938;2023-02-08T17:09:31;32.45;55.90
77523;SHT31;66637;-29.628;-49.938;2023-02-08T17:12:11;32.35;56.81
77523;SHT31;66637;-29.628;-49.938;2023-02-08T17:14:50;32.17;57.48
77523;SHT31;66637;-29.628;-49.938;2023-02-08T17:17:20;32.17;57.70
77523;SHT31;66637;-29.628;-49.938;2023-02-08T17:19:55;32.01;57.78
77523;SHT31;66637;-29.628;-49.938;2023-02-08T17:22:25;31.78;57.78
77523;SHT31;66637;-29.628;-49.938;2023-02-08T17:24:55;31.83;57.41
77523;SHT31;66637;-29.628;-49.938;2023-02-08T17:27:25;32.08;57.14
77523;SHT31;66637;-29.628;-49.938;2023-02-08T17:29:56;32.10;57.09
77523;SHT31;66637;-29.628;-49.938;2023-02-08T17:32:26;31.95;57.07
77523;SHT31;66637;-29.628;-49.938;2023-02-08T17:34:56;31.98;56.88
77523;SHT31;66637;-29.628;-49.938;2023-02-08T17:37:29;31.73;58.25
77523;SHT31;66637;-29.628;-49.938;2023-02-08T17:40:00;31.69;57.83
77523;SHT31;66637;-29.628;-49.938;2023-02-08T17:42:31;31.63;57.52
77523;SHT31;66637;-29.628;-49.938;2023-02-08T17:45:11;31.69;57.55
77523;SHT31;66637;-29.628;-49.938;2023-02-08T17:47:42;31.81;57.73
77523;SHT31;66637;-29.628;-49.938;2023-02-08T17:50:15;31.91;57.58
77523;SHT31;66637;-29.628;-49.938;2023-02-08T17:52:48;31.90;57.06
77523;SHT31;66637;-29.628;-49.938;2023-02-08T17:55:18;31.67;58.06
77523;SHT31;66637;-29.628;-49.938;2023-02-08T17:57:49;31.85;58.10
77523;SHT31;66637;-29.628;-49.938;2023-02-08T18:00:21;32.01;57.72
77523;SHT31;66637;-29.628;-49.938;2023-02-08T18:02:54;32.36;56.36
77523;SHT31;66637;-29.628;-49.938;2023-02-08T18:05:28;32.11;57.97
77523;SHT31;66637;-29.628;-49.938;2023-02-08T18:07:59;31.93;57.37
77523;SHT31;66637;-29.628;-49.938;2023-02-08T18:10:29;32.03;57.19
77523;SHT31;66637;-29.628;-49.938;2023-02-08T18:12:59;32.27;56.93
77523;SHT31;66637;-29.628;-49.938;2023-02-08T18:16:22;32.08;56.84
77523;SHT31;66637;-29.628;-49.938;2023-02-08T18:18:58;31.97;57.14
77523;SHT31;66637;-29.628;-49.938;2023-02-08T18:21:31;32.03;57.21
77523;SHT31;66637;-29.628;-49.938;2023-02-08T18:24:05;31.93;57.45
77523;SHT31;66637;-29.628;-49.938;2023-02-08T18:26:36;32.20;56.86
77523;SHT31;66637;-29.628;-49.938;2023-02-08T18:29:06;32.18;56.74
77523;SHT31;66637;-29.628;-49.938;2023-02-08T18:31:37;31.95;56.78
77523;SHT31;66637;-29.628;-49.938;2023-02-08T18:34:20;31.66;57.69
77523;SHT31;66637;-29.628;-49.938;2023-02-08T18:36:50;31.69;57.75